M I D A S
Marine Information and Data Acquisition System
Tripno 1329 of the Zeeleeuw from 2007-02-09 07:28:21 to 2007-02-09 17:44:42
Back to CruiseResearch ActivitiesStationsMapUnderway DataData graphs

EquipmentUnitsComment
TimeDGPSUTC
LatitudeDGPSDM.mWGS84
LongitudeDGPSDM.mWGS84
TemperatureSBE03/SBE38deg celciusITS90
ConductivitySBE21S/mITS90
SalinitySBE21 Practical Salinity Units
ChlorophylAChelsea fluorimeterg/lCalibrated in Aceton
Missing or incorrect values are displayed as -999
Sea surface data collected by the RV Zeeleeuw from 2007-02-09 07:11:29 to 2007-02-09 17:54:29
Time Latitude Longitude Temperature Conductivity Salinity ChlorophylA
2007-02-09 07:12:37 51°13.609 2°56.048 14.2364 0.075175 0.413399 -2.871232
2007-02-09 07:13:37 51°13.643 2°55.937 14.3244 0.075072 0.412896 -2.871232
2007-02-09 07:14:37 51°13.676 2°55.835 14.3369 0.075072 0.412986 -2.871232
2007-02-09 07:15:36 51°13.694 2°55.759 7.0443 2.32573 17.098276 -2.871232
2007-02-09 07:16:36 51°13.697 2°55.721 6.3119 2.724486 25.345777 -2.871232
2007-02-09 07:17:35 51°13.721 2°55.724 6.1641 2.663703 25.030229 -2.871232
2007-02-09 07:18:34 51°13.797 2°55.662 6.1125 2.633107 24.82807 -2.871232
2007-02-09 07:19:34 51°13.917 2°55.572 6.0934 2.448946 22.989666 -2.871232
2007-02-09 07:20:34 51°14.049 2°55.48 6.0617 2.512495 23.655264 -2.871232
2007-02-09 07:21:37 51°14.198 2°55.356 6.0685 2.620808 24.804086 -2.871232
2007-02-09 07:22:36 51°14.315 2°55.144 6.0577 2.65709 25.20511 -2.871232
2007-02-09 07:23:34 51°14.45 2°54.934 6.1544 2.767917 26.299519 -2.871232
2007-02-09 07:24:33 51°14.647 2°54.819 6.1299 3.005272 28.767667 -2.871232
2007-02-09 07:25:33 51°14.851 2°54.705 6.0903 3.101077 29.839426 -2.871232
2007-02-09 07:26:34 51°15.06 2°54.597 6.2221 3.120841 30.054986 -2.871232
2007-02-09 07:27:33 51°15.266 2°54.527 6.3613 3.22412 30.994461 -2.871232
2007-02-09 07:28:33 51°15.477 2°54.473 6.343 3.247407 31.178814 -2.871232
2007-02-09 07:29:33 51°15.687 2°54.42 6.288 3.238817 31.124105 -2.871232
2007-02-09 07:30:34 51°15.887 2°54.351 6.2265 3.214391 30.909593 -2.871232
2007-02-09 07:31:33 51°16.032 2°54.197 6.2456 3.192347 30.711254 -2.871232
2007-02-09 07:32:33 51°16.126 2°54.179 6.2439 3.178583 30.55417 -2.871232
2007-02-09 07:33:33 51°16.191 2°54.239 6.2437 3.177134 30.544916 -2.871232
2007-02-09 07:34:33 51°16.253 2°54.298 6.2385 3.177237 30.550418 -2.871232
2007-02-09 07:35:34 51°16.285 2°54.333 6.2243 3.17465 30.529047 -2.871232
2007-02-09 07:36:33 51°16.286 2°54.345 6.2385 3.164302 30.413687 -2.871232
2007-02-09 07:37:34 51°16.283 2°54.357 6.2437 3.166992 30.437918 -2.871232
2007-02-09 07:38:33 51°16.279 2°54.369 6.2436 3.175271 30.52334 -2.871232
2007-02-09 07:39:33 51°16.275 2°54.374 6.2468 3.172373 30.495153 -2.871232
2007-02-09 07:40:33 51°16.271 2°54.366 6.2507 3.174754 30.516957 -2.871232
2007-02-09 07:41:34 51°16.266 2°54.362 6.25 3.176823 30.537215 -2.871232
2007-02-09 07:42:34 51°16.268 2°54.337 6.2567 3.176513 30.533912 -2.871232
2007-02-09 07:43:33 51°16.273 2°54.318 6.2491 3.174857 30.517178 -2.871232
2007-02-09 07:44:33 51°16.276 2°54.305 6.2527 3.168544 30.456181 -2.871232
2007-02-09 07:45:33 51°16.272 2°54.301 6.2519 3.176823 30.538974 -2.871232
2007-02-09 07:46:34 51°16.264 2°54.301 6.2449 3.175478 30.527301 -2.871232
2007-02-09 07:47:33 51°16.256 2°54.305 6.2379 3.175478 30.532578 -2.871232
2007-02-09 07:48:34 51°16.246 2°54.309 6.2352 3.179721 30.583898 -2.871232
2007-02-09 07:49:34 51°16.237 2°54.314 6.2284 3.177445 30.563188 -2.871232
2007-02-09 07:50:34 51°16.226 2°54.32 6.2298 3.179618 30.58456 -2.871232
2007-02-09 07:51:34 51°16.216 2°54.326 6.2279 3.177445 30.56495 -2.871232
2007-02-09 07:52:33 51°16.212 2°54.322 6.2242 3.180446 30.597782 -2.871232
2007-02-09 07:53:37 51°16.233 2°54.287 6.2281 3.179307 30.589189 -2.871232
2007-02-09 07:54:36 51°16.266 2°54.257 6.2261 3.177445 30.567593 -2.871232
2007-02-09 07:55:34 51°16.254 2°54.293 6.2277 3.164509 30.433425 -2.871232
2007-02-09 07:56:33 51°16.249 2°54.304 6.2223 3.170925 30.50171 -2.871232
2007-02-09 07:57:34 51°16.244 2°54.305 6.22 3.172374 30.520651 -2.871232
2007-02-09 07:58:34 51°16.239 2°54.307 6.2191 3.161094 30.402347 -2.871232
2007-02-09 07:59:34 51°16.233 2°54.309 6.222 3.185931 30.666797 -2.871232
2007-02-09 08:00:34 51°16.228 2°54.311 6.2162 3.183344 30.641002 -2.871232
2007-02-09 08:01:34 51°16.222 2°54.316 6.2096 3.181377 30.622706 -2.871232
2007-02-09 08:02:33 51°16.21 2°54.34 6.2055 3.180343 30.61433 -2.871232
2007-02-09 08:03:33 51°16.172 2°54.357 6.2007 3.180239 30.61676 -2.871232
2007-02-09 08:04:33 51°16.13 2°54.317 6.1959 3.179722 30.619196 -2.871232
2007-02-09 08:05:33 51°16.119 2°54.202 6.1953 3.179515 30.621408 -2.871232
2007-02-09 08:06:34 51°16.119 2°53.903 6.218 3.180343 30.624046 -2.871232
2007-02-09 08:07:34 51°16.094 2°53.535 6.2489 3.176306 30.555474 -2.871232
2007-02-09 08:08:34 51°16.072 2°53.163 6.3272 3.177444 30.538542 -2.871232
2007-02-09 08:09:34 51°16.057 2°52.787 6.2682 3.188724 30.607428 -2.871232
2007-02-09 08:10:33 51°16.036 2°52.417 6.2769 3.169476 30.445913 -2.871232
2007-02-09 08:11:33 51°16.021 2°52.04 6.2882 3.179824 30.548904 -2.871232
2007-02-09 08:12:34 51°16.005 2°51.658 6.3798 3.196176 30.707792 -2.871232
2007-02-09 08:13:33 51°15.989 2°51.288 6.4166 3.230226 30.985499 -2.871232
2007-02-09 08:14:34 51°15.99 2°50.906 6.4358 3.239851 31.053017 -2.871232
2007-02-09 08:15:33 51°16.024 2°50.541 6.4936 3.247406 31.107379 -2.871232
2007-02-09 08:16:34 51°16.059 2°50.167 6.48 3.253409 31.115834 -2.871232
2007-02-09 08:17:34 51°16.097 2°49.794 6.4845 3.259206 31.214726 -2.871232
2007-02-09 08:18:33 51°16.131 2°49.426 6.5457 3.274732 31.349002 -2.871232
2007-02-09 08:19:33 51°16.156 2°49.051 6.5851 3.271419 31.259349 -2.871232
2007-02-09 08:20:33 51°16.115 2°48.716 6.588 3.263448 31.154537 -2.871232
2007-02-09 08:21:33 51°16.029 2°48.612 6.5781 3.281356 31.33416 -2.871232
2007-02-09 08:22:34 51°15.978 2°48.51 6.568 3.255789 31.083301 -2.871232
2007-02-09 08:23:33 51°15.955 2°48.406 6.5642 3.272868 31.27112 -2.871232
2007-02-09 08:24:34 51°15.933 2°48.302 6.568 3.279493 31.343048 -2.871232
2007-02-09 08:25:34 51°15.906 2°48.203 6.5718 3.272661 31.262683 -2.871232
2007-02-09 08:26:34 51°15.875 2°48.114 6.5658 3.284151 31.381631 -2.871232
2007-02-09 08:27:34 51°15.84 2°48.029 6.5795 3.28353 31.375951 -2.871232
2007-02-09 08:28:34 51°15.806 2°47.943 6.5794 3.284254 31.37467 -2.871232
2007-02-09 08:29:34 51°15.775 2°47.854 6.5769 3.277733 31.307436 -2.871232
2007-02-09 08:30:34 51°15.745 2°47.765 6.5773 3.293881 31.481987 -2.871232
2007-02-09 08:31:33 51°15.715 2°47.678 6.5779 3.290465 31.445807 -2.871232
2007-02-09 08:32:34 51°15.684 2°47.586 6.5711 3.293674 31.478896 -2.871232
2007-02-09 08:33:33 51°15.653 2°47.5 6.5819 3.304026 31.587662 -2.871232
2007-02-09 08:34:34 51°15.619 2°47.413 6.5801 3.301852 31.559225 -2.871232
2007-02-09 08:35:33 51°15.585 2°47.329 6.5756 3.297711 31.52076 -2.871232
2007-02-09 08:36:34 51°15.552 2°47.24 6.5735 3.305475 31.602117 -2.871232
2007-02-09 08:37:34 51°15.522 2°47.152 6.5801 3.305993 31.6067 -2.871232
2007-02-09 08:38:33 51°15.491 2°47.068 6.5577 3.297194 31.53147 -2.871232
2007-02-09 08:39:34 51°15.456 2°46.981 6.5729 3.303715 31.593385 -2.871232
2007-02-09 08:40:33 51°15.423 2°46.895 6.5875 3.300506 31.547669 -2.871232
2007-02-09 08:41:34 51°15.39 2°46.804 6.5918 3.323384 31.780185 -2.871232
2007-02-09 08:42:33 51°15.358 2°46.717 6.5956 3.320071 31.739637 -2.871232
2007-02-09 08:43:34 51°15.323 2°46.627 6.5894 3.323488 31.781283 -2.871232
2007-02-09 08:44:33 51°15.29 2°46.543 6.6009 3.313032 31.66956 -2.871232
2007-02-09 08:45:34 51°15.256 2°46.455 6.5991 3.315516 31.685947 -2.871232
2007-02-09 08:46:34 51°15.222 2°46.366 6.5962 3.324005 31.774989 -2.871232
2007-02-09 08:47:33 51°15.192 2°46.277 6.5993 3.31769 31.712595 -2.871232
2007-02-09 08:48:34 51°15.161 2°46.183 6.6059 3.330423 31.840297 -2.871232
2007-02-09 08:49:33 51°15.129 2°46.094 6.5997 3.325972 31.792209 -2.871232
2007-02-09 08:50:34 51°15.098 2°46.001 6.6068 3.335289 31.891879 -2.871232
2007-02-09 08:51:33 51°15.067 2°45.911 6.609 3.326179 31.790778 -2.871232
2007-02-09 08:52:34 51°15.034 2°45.819 6.6116 3.330734 31.838143 -2.871232
2007-02-09 08:53:34 51°14.998 2°45.732 6.6082 3.331252 31.839999 -2.871232
2007-02-09 08:54:33 51°14.961 2°45.649 6.6027 3.321831 31.74652 -2.871232
2007-02-09 08:55:34 51°14.921 2°45.563 6.5985 3.33736 31.912922 -2.871232
2007-02-09 08:56:34 51°14.88 2°45.483 6.5954 3.33239 31.864781 -2.871232
2007-02-09 08:57:34 51°14.838 2°45.406 6.5959 3.332908 31.873905 -2.871232
2007-02-09 08:58:33 51°14.798 2°45.327 6.5973 3.335496 31.89953 -2.871232
2007-02-09 08:59:34 51°14.758 2°45.243 6.5988 3.334461 31.887643 -2.871232
2007-02-09 09:00:33 51°14.722 2°45.159 6.6008 3.338395 31.92663 -2.871232
2007-02-09 09:01:34 51°14.685 2°45.072 6.601 3.34647 32.012278 -2.871232
2007-02-09 09:02:33 51°14.649 2°44.989 6.5983 3.342432 31.96945 -2.871232
2007-02-09 09:03:34 51°14.61 2°44.902 6.5978 3.343157 31.97896 -2.871232
2007-02-09 09:04:34 51°14.573 2°44.817 6.5968 3.348955 32.039552 -2.871232
2007-02-09 09:05:33 51°14.533 2°44.736 6.6008 3.352164 32.068119 -2.871232
2007-02-09 09:06:34 51°14.49 2°44.654 6.5965 3.349472 32.045044 -2.871232
2007-02-09 09:07:33 51°14.449 2°44.576 6.6019 3.347609 32.027099 -2.871232
2007-02-09 09:08:34 51°14.405 2°44.495 6.5974 3.350508 32.055115 -2.871232
2007-02-09 09:09:33 51°14.364 2°44.417 6.6015 3.349679 32.046327 -2.871232
2007-02-09 09:10:34 51°14.321 2°44.334 6.6168 3.35527 32.102904 -2.871232
2007-02-09 09:11:34 51°14.279 2°44.254 6.6163 3.359618 32.134393 -2.871232
2007-02-09 09:12:34 51°14.238 2°44.174 6.614 3.350818 32.047445 -2.871232
2007-02-09 09:13:34 51°14.196 2°44.093 6.6139 3.35382 32.075636 -2.871232
2007-02-09 09:14:33 51°14.157 2°44.012 6.6144 3.354338 32.082955 -2.871232
2007-02-09 09:15:34 51°14.116 2°43.928 6.6189 3.359722 32.140071 -2.871232
2007-02-09 09:16:34 51°14.075 2°43.847 6.6281 3.357755 32.111878 -2.871232
2007-02-09 09:17:34 51°14.034 2°43.766 6.6222 3.354856 32.08296 -2.871232
2007-02-09 09:18:34 51°13.991 2°43.685 6.6488 3.361274 32.135483 -2.871232
2007-02-09 09:19:34 51°13.95 2°43.605 6.6649 3.380221 32.317154 -2.871232
2007-02-09 09:20:34 51°13.91 2°43.522 6.6902 3.383327 32.335375 -2.871232
2007-02-09 09:21:33 51°13.871 2°43.441 6.6964 3.39368 32.425812 -2.871232
2007-02-09 09:22:34 51°13.829 2°43.359 6.7085 3.395751 32.437621 -2.871232
2007-02-09 09:23:33 51°13.788 2°43.28 6.7284 3.398029 32.448852 -2.871232
2007-02-09 09:24:34 51°13.745 2°43.2 6.743 3.401135 32.464242 -2.871232
2007-02-09 09:25:34 51°13.703 2°43.121 6.7441 3.408175 32.527746 -2.871232
2007-02-09 09:26:34 51°13.66 2°43.045 6.7686 3.406726 32.501319 -2.871232
2007-02-09 09:27:34 51°13.616 2°42.969 6.7826 3.411696 32.538247 -2.871232
2007-02-09 09:28:34 51°13.573 2°42.891 6.7906 3.41708 32.582305 -2.871232
2007-02-09 09:29:34 51°13.54 2°42.801 6.7901 3.42236 32.634499 -2.871232
2007-02-09 09:30:34 51°13.528 2°42.7 6.7968 3.416458 32.568342 -2.871232
2007-02-09 09:31:34 51°13.531 2°42.602 6.8084 3.416976 32.567357 -2.871232
2007-02-09 09:32:34 51°13.539 2°42.506 6.8155 3.423085 32.620897 -2.871232
2007-02-09 09:33:34 51°13.56 2°42.42 6.8161 3.424224 32.630171 -2.871232
2007-02-09 09:34:34 51°13.589 2°42.354 6.7351 3.424431 32.62774 -2.871232
2007-02-09 09:35:34 51°13.608 2°42.298 6.6655 3.378357 32.244151 -2.871232
2007-02-09 09:36:34 51°13.62 2°42.251 6.6423 3.364587 32.155048 -2.871232
2007-02-09 09:37:34 51°13.63 2°42.197 6.6281 3.366554 32.184148 -2.871232
2007-02-09 09:38:34 51°13.621 2°42.11 6.624 3.358479 32.11499 -2.871232
2007-02-09 09:39:34 51°13.566 2°42.054 6.6285 3.35703 32.098703 -2.871232
2007-02-09 09:40:34 51°13.526 2°42.146 6.635 3.368315 32.214739 -2.871232
2007-02-09 09:41:33 51°13.53 2°42.432 6.8121 3.368314 32.168004 -2.871232
2007-02-09 09:42:34 51°13.552 2°42.773 6.7426 3.421221 32.600258 -2.871232
2007-02-09 09:43:33 51°13.574 2°43.103 6.7127 3.394301 32.398309 -2.871232
2007-02-09 09:44:34 51°13.59 2°43.441 6.6978 3.387778 32.341177 -2.871232
2007-02-09 09:45:34 51°13.605 2°43.771 6.6552 3.382395 32.303434 -2.871232
2007-02-09 09:46:34 51°13.622 2°44.092 6.6315 3.361585 32.125967 -2.871232
2007-02-09 09:47:34 51°13.632 2°44.43 6.6538 3.36407 32.1578 -2.871232
2007-02-09 09:48:33 51°13.645 2°44.762 6.6428 3.361585 32.122308 -2.871232
2007-02-09 09:49:34 51°13.605 2°45.094 6.6469 3.358065 32.090484 -2.871232
2007-02-09 09:50:34 51°13.52 2°45.377 6.6393 3.366451 32.176636 -2.871232
2007-02-09 09:51:34 51°13.297 2°45.385 6.6243 3.360032 32.11865 -2.871232
2007-02-09 09:52:34 51°13.129 2°45.118 6.6269 3.372767 32.265653 -2.871232
2007-02-09 09:53:34 51°12.961 2°44.832 6.6408 3.37639 32.299511 -2.871232
2007-02-09 09:54:34 51°12.798 2°44.54 6.6728 3.383327 32.35563 -2.871232
2007-02-09 09:55:33 51°12.641 2°44.248 6.6773 3.388193 32.381452 -2.871232
2007-02-09 09:56:34 51°12.479 2°43.952 6.679 3.386536 32.361124 -2.871232
2007-02-09 09:57:33 51°12.31 2°43.683 6.6861 3.385087 32.342996 -2.871232
2007-02-09 09:58:34 51°12.115 2°43.445 6.6738 3.386433 32.359106 -2.871232
2007-02-09 09:59:34 51°11.924 2°43.221 6.6776 3.390781 32.408902 -2.871232
2007-02-09 10:00:34 51°11.74 2°43.008 6.6649 3.394198 32.441449 -2.871232
2007-02-09 10:01:34 51°11.548 2°42.782 6.6327 3.392749 32.444535 -2.871232
2007-02-09 10:02:33 51°11.358 2°42.548 6.6281 3.383017 32.360626 -2.871232
2007-02-09 10:03:34 51°11.223 2°42.32 6.3965 3.36904 32.277601 -2.871232
2007-02-09 10:04:34 51°11.166 2°42.168 6.3561 3.341814 32.160946 -2.871232
2007-02-09 10:05:34 51°11.118 2°42.093 6.3587 3.333739 32.108869 -2.871232
2007-02-09 10:06:34 51°11.106 2°42.06 6.4623 3.336638 32.125987 -2.871232
2007-02-09 10:07:34 51°11.104 2°42.033 6.496 3.365314 32.331186 -2.871232
2007-02-09 10:08:34 51°11.1 2°42.007 6.4915 3.371526 32.371453 -2.871232
2007-02-09 10:09:33 51°11.095 2°41.984 6.4545 3.365314 32.32841 -2.871232
2007-02-09 10:10:34 51°11.088 2°41.961 6.445 3.358688 32.285532 -2.871232
2007-02-09 10:11:33 51°11.075 2°41.952 6.4607 3.355789 32.258322 -2.871232
2007-02-09 10:12:34 51°11.078 2°41.994 6.3728 3.348232 32.213746 -2.871232
2007-02-09 10:13:33 51°11.098 2°42.049 6.3943 3.339122 32.134986 -2.871232
2007-02-09 10:14:33 51°11.106 2°42.1 6.389 3.336948 32.111785 -2.871232
2007-02-09 10:15:34 51°11.119 2°42.112 6.3871 3.331875 32.06502 -2.871232
2007-02-09 10:16:33 51°11.129 2°42.111 6.3785 3.331461 32.058761 -2.871232
2007-02-09 10:17:34 51°11.136 2°42.105 6.3774 3.330737 32.05931 -2.871232
2007-02-09 10:18:34 51°11.141 2°42.096 6.3723 3.331254 32.063914 -2.871232
2007-02-09 10:19:34 51°11.139 2°42.08 6.3709 3.329908 32.054152 -2.871232
2007-02-09 10:20:34 51°11.136 2°42.062 6.3843 3.332082 32.074595 -2.871232
2007-02-09 10:21:33 51°11.133 2°42.044 6.3893 3.336327 32.107921 -2.871232
2007-02-09 10:22:33 51°11.131 2°42.027 6.3716 3.3326 32.076436 -2.871232
2007-02-09 10:23:34 51°11.127 2°42.009 6.4116 3.333739 32.084906 -2.871232
2007-02-09 10:24:34 51°11.117 2°42.02 6.4345 3.350717 32.211622 -2.871232
2007-02-09 10:25:34 51°11.101 2°42.068 6.424 3.340778 32.127772 -2.871232
2007-02-09 10:26:33 51°11.108 2°42.093 6.4267 3.334049 32.044993 -2.871232
2007-02-09 10:27:34 51°11.115 2°42.104 6.4305 3.331978 32.022009 -2.871232
2007-02-09 10:28:34 51°11.12 2°42.108 6.4401 3.332703 32.026978 -2.871232
2007-02-09 10:29:34 51°11.122 2°42.108 6.4448 3.340364 32.098506 -2.871232
2007-02-09 10:30:34 51°11.122 2°42.104 6.4514 3.343366 32.127739 -2.871232
2007-02-09 10:31:33 51°11.12 2°42.097 6.4457 3.344815 32.138582 -2.871232
2007-02-09 10:32:34 51°11.115 2°42.087 6.4449 3.3385 32.07773 -2.871232
2007-02-09 10:33:34 51°11.109 2°42.074 6.4536 3.337568 32.066884 -2.871232
2007-02-09 10:34:34 51°11.103 2°42.06 6.4656 3.34554 32.138019 -2.871232
2007-02-09 10:35:34 51°11.097 2°42.044 6.4651 3.350302 32.182308 -2.871232
2007-02-09 10:36:33 51°11.09 2°42.027 6.4592 3.348853 32.167788 -2.871232
2007-02-09 10:37:34 51°11.084 2°42.009 6.4575 3.346161 32.144637 -2.871232
2007-02-09 10:38:34 51°11.078 2°41.998 6.4621 3.344401 32.127727 -2.871232
2007-02-09 10:39:34 51°11.092 2°42.031 6.4605 3.343366 32.116698 -2.871232
2007-02-09 10:40:34 51°11.103 2°42.087 6.4539 3.348749 32.166686 -2.871232
2007-02-09 10:41:33 51°11.117 2°42.099 6.4589 3.340881 32.101263 -2.871232
2007-02-09 10:42:34 51°11.128 2°42.099 6.4676 3.34233 32.099235 -2.871232
2007-02-09 10:43:33 51°11.141 2°42.095 6.4643 3.341192 32.084351 -2.871232
2007-02-09 10:44:34 51°11.227 2°42.154 6.5128 3.341813 32.090966 -2.871232
2007-02-09 10:45:33 51°11.383 2°42.338 6.6259 3.366141 32.239433 -2.871232
2007-02-09 10:46:34 51°11.545 2°42.556 6.6595 3.383845 32.374027 -2.871232
2007-02-09 10:47:34 51°11.705 2°42.767 6.6686 3.387158 32.384293 -2.871232
2007-02-09 10:48:34 51°11.864 2°42.972 6.6741 3.385294 32.357156 -2.871232
2007-02-09 10:49:33 51°12.015 2°43.193 6.684 3.382291 32.320718 -2.871232
2007-02-09 10:50:33 51°12.163 2°43.429 6.688 3.385915 32.347176 -2.871232
2007-02-09 10:51:33 51°12.308 2°43.674 6.6837 3.388814 32.376065 -2.871232
2007-02-09 10:52:34 51°12.457 2°43.919 6.6725 3.389746 32.393314 -2.871232
2007-02-09 10:53:34 51°12.602 2°44.159 6.6557 3.388089 32.385882 -2.871232
2007-02-09 10:54:34 51°12.746 2°44.399 6.6303 3.381256 32.335501 -2.871232
2007-02-09 10:55:33 51°12.889 2°44.633 6.6203 3.377426 32.313261 -2.871232
2007-02-09 10:56:33 51°13.035 2°44.869 6.6017 3.377322 32.323213 -2.871232
2007-02-09 10:57:34 51°13.184 2°45.106 6.565 3.36728 32.243254 -2.871232
2007-02-09 10:58:34 51°13.336 2°45.326 6.5589 3.35175 32.103081 -2.871232
2007-02-09 10:59:34 51°13.538 2°45.351 6.5702 3.347092 32.061834 -2.871232
2007-02-09 11:00:34 51°13.678 2°45.131 6.5892 3.352786 32.103998 -2.871232
2007-02-09 11:01:33 51°13.686 2°44.766 6.6027 3.356098 32.122684 -2.871232
2007-02-09 11:02:33 51°13.661 2°44.384 6.605 3.356202 32.109131 -2.871232
2007-02-09 11:03:33 51°13.637 2°44.007 6.6092 3.351025 32.05421 -2.871232
2007-02-09 11:04:34 51°13.663 2°43.649 6.631 3.351232 32.046357 -2.871232
2007-02-09 11:05:34 51°13.794 2°43.342 6.6358 3.358479 32.104014 -2.871232
2007-02-09 11:06:33 51°13.917 2°43.027 6.6443 3.358272 32.106391 -2.871232
2007-02-09 11:07:33 51°14.041 2°42.708 6.6584 3.363448 32.142976 -2.871232
2007-02-09 11:08:33 51°14.168 2°42.394 6.6536 3.360342 32.10183 -2.871232
2007-02-09 11:09:33 51°14.319 2°42.114 6.6598 3.353613 32.028713 -2.871232
2007-02-09 11:10:34 51°14.497 2°41.874 6.6719 3.340258 31.89456 -2.871232
2007-02-09 11:11:34 51°14.685 2°41.674 6.6899 3.346573 31.941432 -2.871232
2007-02-09 11:12:34 51°14.884 2°41.507 6.7008 3.34885 31.941009 -2.871232
2007-02-09 11:13:34 51°15.09 2°41.377 6.7082 3.358064 32.037578 -2.871232
2007-02-09 11:14:34 51°15.3 2°41.279 6.713 3.362619 32.072111 -2.871232
2007-02-09 11:15:34 51°15.514 2°41.228 6.7099 3.386329 32.329499 -2.871232
2007-02-09 11:16:33 51°15.725 2°41.175 6.7165 3.391609 32.383598 -2.871232
2007-02-09 11:17:33 51°15.941 2°41.12 6.7639 3.396061 32.400385 -2.871232
2007-02-09 11:18:34 51°16.153 2°41.064 6.7913 3.394301 32.353276 -2.871232
2007-02-09 11:19:34 51°16.291 2°41.021 6.8048 3.389745 32.276717 -2.871232
2007-02-09 11:20:34 51°16.404 2°40.994 6.8185 3.386742 32.238602 -2.871232
2007-02-09 11:21:34 51°16.473 2°41.063 6.829 3.384878 32.206145 -2.871232
2007-02-09 11:22:34 51°16.569 2°41.12 6.8068 3.383221 32.179545 -2.871232
2007-02-09 11:23:34 51°16.643 2°41.174 6.7854 3.375974 32.128551 -2.871232
2007-02-09 11:24:33 51°16.701 2°41.231 6.7684 3.366449 32.049809 -2.871232
2007-02-09 11:25:33 51°16.735 2°41.283 6.7654 3.360755 32.001482 -2.871232
2007-02-09 11:26:34 51°16.742 2°41.313 6.7679 3.354129 31.933327 -2.871232
2007-02-09 11:27:34 51°16.74 2°41.32 6.7829 3.350195 31.883653 -2.871232
2007-02-09 11:28:34 51°16.73 2°41.29 6.759 3.34947 31.874197 -2.871232
2007-02-09 11:29:34 51°16.72 2°41.253 6.7662 3.352162 31.924331 -2.871232
2007-02-09 11:30:34 51°16.716 2°41.247 6.7537 3.350195 31.889983 -2.871232
2007-02-09 11:31:34 51°16.725 2°41.265 6.7674 3.351438 31.906718 -2.871232
2007-02-09 11:32:34 51°16.734 2°41.291 6.7745 3.34771 31.861046 -2.871232
2007-02-09 11:33:33 51°16.751 2°41.305 6.7648 3.3474 31.851444 -2.871232
2007-02-09 11:34:33 51°16.751 2°41.309 6.764 3.345951 31.847891 -2.871232
2007-02-09 11:35:34 51°16.744 2°41.304 6.7603 3.345536 31.845327 -2.871232
2007-02-09 11:36:34 51°16.735 2°41.294 6.7603 3.345536 31.847134 -2.871232
2007-02-09 11:37:34 51°16.726 2°41.282 6.7711 3.34564 31.84371 -2.871232
2007-02-09 11:38:34 51°16.716 2°41.267 6.7727 3.345847 31.83867 -2.871232
2007-02-09 11:39:34 51°16.708 2°41.253 6.7794 3.346261 31.845749 -2.871232
2007-02-09 11:40:34 51°16.762 2°41.276 6.7905 3.345847 31.836865 -2.871232
2007-02-09 11:41:34 51°16.921 2°41.328 6.7842 3.339221 31.76156 -2.871232
2007-02-09 11:42:34 51°17.037 2°41.391 6.8005 3.333113 31.695354 -2.871232
2007-02-09 11:43:34 51°17.104 2°41.401 6.798 3.330318 31.644357 -2.871232
2007-02-09 11:44:34 51°17.125 2°41.409 6.8243 3.328351 31.629014 -2.871232
2007-02-09 11:45:33 51°17.133 2°41.4 6.8177 3.327936 31.598688 -2.871232
2007-02-09 11:46:34 51°17.138 2°41.4 6.7856 3.328765 31.629792 -2.871232
2007-02-09 11:47:34 51°17.131 2°41.402 6.7844 3.328144 31.640279 -2.871232
2007-02-09 11:48:34 51°17.12 2°41.413 6.8038 3.327419 31.628159 -2.871232
2007-02-09 11:49:34 51°17.108 2°41.409 6.7921 3.326487 31.610279 -2.871232
2007-02-09 11:50:34 51°17.094 2°41.398 6.7938 3.326384 31.61725 -2.871232
2007-02-09 11:51:34 51°17.08 2°41.386 6.793 3.326487 31.620134 -2.871232
2007-02-09 11:52:34 51°17.063 2°41.394 6.8168 3.325866 31.606422 -2.871232
2007-02-09 11:53:33 51°17.043 2°41.435 6.8014 3.325555 31.583461 -2.871232
2007-02-09 11:54:34 51°16.989 2°41.518 6.7923 3.325556 31.608524 -2.871232
2007-02-09 11:55:34 51°16.913 2°41.565 6.7764 3.325763 31.618771 -2.871232
2007-02-09 11:56:34 51°16.847 2°41.6 6.7629 3.32597 31.631713 -2.871232
2007-02-09 11:57:34 51°16.78 2°41.621 6.7571 3.326798 31.651217 -2.871232
2007-02-09 11:58:34 51°16.712 2°41.629 6.7549 3.326384 31.648645 -2.871232
2007-02-09 11:59:34 51°16.644 2°41.625 6.7533 3.328041 31.670609 -2.871232
2007-02-09 12:00:34 51°16.578 2°41.622 6.757 3.327834 31.667526 -2.871232
2007-02-09 12:01:34 51°16.511 2°41.616 6.7613 3.328765 31.671964 -2.871232
2007-02-09 12:02:34 51°16.445 2°41.584 6.7639 3.330008 31.684169 -2.871232
2007-02-09 12:03:34 51°16.384 2°41.522 6.7693 3.33125 31.692779 -2.871232
2007-02-09 12:04:34 51°16.33 2°41.447 6.7736 3.332285 31.699203 -2.871232
2007-02-09 12:05:34 51°16.281 2°41.362 6.7785 3.334252 31.715452 -2.871232
2007-02-09 12:06:34 51°16.241 2°41.28 6.782 3.336115 31.729707 -2.871232
2007-02-09 12:07:34 51°16.211 2°41.211 6.7847 3.338082 31.74955 -2.871232
2007-02-09 12:08:34 51°16.186 2°41.149 6.7866 3.33891 31.754683 -2.871232
2007-02-09 12:09:34 51°16.162 2°41.088 6.7933 3.340153 31.766884 -2.871232
2007-02-09 12:10:34 51°16.135 2°41.021 6.7955 3.340877 31.771824 -2.871232
2007-02-09 12:11:34 51°16.106 2°40.951 6.7942 3.340877 31.763721 -2.871232
2007-02-09 12:12:34 51°16.075 2°40.881 6.8018 3.347296 31.834104 -2.871232
2007-02-09 12:13:34 51°16.041 2°40.811 6.7989 3.352162 31.880908 -2.871232
2007-02-09 12:14:34 51°16.007 2°40.743 6.7969 3.363654 32.009401 -2.871232
2007-02-09 12:15:34 51°15.973 2°40.672 6.7846 3.367899 32.054209 -2.871232
2007-02-09 12:16:34 51°15.941 2°40.604 6.7898 3.36676 32.052181 -2.871232
2007-02-09 12:17:34 51°15.908 2°40.535 6.7959 3.365414 32.032519 -2.871232
2007-02-09 12:18:34 51°15.875 2°40.466 6.8136 3.366967 32.037108 -2.871232
2007-02-09 12:19:36 51°15.841 2°40.393 6.8322 3.373282 32.086496 -2.871232
2007-02-09 12:20:34 51°15.81 2°40.326 6.8375 3.376595 32.11418 -2.871232
2007-02-09 12:21:34 51°15.777 2°40.258 6.847 3.378459 32.116564 -2.871232
2007-02-09 12:22:34 51°15.744 2°40.19 6.8414 3.37908 32.121297 -2.871232
2007-02-09 12:23:34 51°15.712 2°40.122 6.8492 3.380219 32.139674 -2.871232
2007-02-09 12:24:34 51°15.68 2°40.053 6.8491 3.380219 32.134216 -2.871232
2007-02-09 12:25:34 51°15.648 2°39.986 6.8559 3.382082 32.145684 -2.871232
2007-02-09 12:26:34 51°15.616 2°39.918 6.8617 3.382082 32.141137 -2.871232
2007-02-09 12:27:34 51°15.584 2°39.848 6.8683 3.383635 32.154782 -2.871232
2007-02-09 12:28:34 51°15.551 2°39.782 6.8644 3.386016 32.173519 -2.871232
2007-02-09 12:29:37 51°15.516 2°39.712 6.8701 3.384981 32.168063 -2.871232
2007-02-09 12:30:35 51°15.485 2°39.648 6.8625 3.385602 32.170063 -2.871232
2007-02-09 12:31:34 51°15.454 2°39.58 6.8688 3.386638 32.183709 -2.871232
2007-02-09 12:32:34 51°15.421 2°39.513 6.8726 3.385188 32.166607 -2.871232
2007-02-09 12:33:34 51°15.39 2°39.443 6.8645 3.388812 32.202991 -2.871232
2007-02-09 12:34:34 51°15.362 2°39.37 6.86 3.388812 32.204812 -2.871232
2007-02-09 12:35:34 51°15.339 2°39.295 6.8654 3.389226 32.213735 -2.871232
2007-02-09 12:36:34 51°15.321 2°39.222 6.8561 3.389123 32.212643 -2.871232
2007-02-09 12:37:34 51°15.307 2°39.148 6.8566 3.388191 32.205549 -2.871232
2007-02-09 12:38:34 51°15.297 2°39.073 6.8597 3.387363 32.195904 -2.871232
2007-02-09 12:39:34 51°15.292 2°38.998 6.8659 3.388916 32.210459 -2.871232
2007-02-09 12:40:34 51°15.298 2°38.937 6.8763 3.38757 32.196266 -2.871232
2007-02-09 12:41:34 51°15.305 2°38.882 6.8779 3.389019 32.19971 -2.871232
2007-02-09 12:42:34 51°15.331 2°38.84 6.8755 3.388708 32.191884 -2.871232
2007-02-09 12:43:34 51°15.354 2°38.83 6.8664 3.385395 32.161513 -2.871232
2007-02-09 12:44:34 51°15.361 2°38.854 6.8563 3.382496 32.139139 -2.871232
2007-02-09 12:45:34 51°15.369 2°38.891 6.8542 3.379597 32.114941 -2.871232
2007-02-09 12:46:34 51°15.384 2°38.933 6.8461 3.376905 32.087473 -2.871232
2007-02-09 12:47:34 51°15.396 2°38.985 6.8362 3.378562 32.115838 -2.871232
2007-02-09 12:48:34 51°15.412 2°39.036 6.8451 3.376077 32.094177 -2.871232
2007-02-09 12:49:34 51°15.447 2°39.125 6.8375 3.374524 32.070539 -2.871232
2007-02-09 12:50:34 51°15.51 2°39.331 6.7868 3.36707 32.017333 -2.871232
2007-02-09 12:51:34 51°15.565 2°39.542 6.8008 3.358788 31.950802 -2.871232
2007-02-09 12:52:34 51°15.63 2°39.756 6.8025 3.358788 31.948991 -2.871232
2007-02-09 12:53:34 51°15.671 2°39.919 6.8107 3.352783 31.882943 -2.871232
2007-02-09 12:54:34 51°15.696 2°40.015 6.7984 3.342637 31.771472 -2.871232
2007-02-09 12:55:34 51°15.7 2°40.035 6.8026 3.340256 31.749076 -2.871232
2007-02-09 12:56:34 51°15.699 2°40.028 6.8036 3.339221 31.74626 -2.871232
2007-02-09 12:57:34 51°15.695 2°40.017 6.8181 3.338807 31.738297 -2.871232
2007-02-09 12:58:34 51°15.692 2°40.007 6.8125 3.338807 31.723017 -2.871232
2007-02-09 12:59:34 51°15.688 2°40 6.7934 3.342223 31.770707 -2.871232
2007-02-09 13:00:34 51°15.681 2°39.995 6.7804 3.343155 31.793139 -2.871232
2007-02-09 13:01:34 51°15.665 2°40.021 6.7792 3.345847 31.829644 -2.871232
2007-02-09 13:02:34 51°15.663 2°40.071 6.7953 3.33891 31.746584 -2.871232
2007-02-09 13:03:34 51°15.707 2°40.071 6.8016 3.339221 31.748959 -2.871232
2007-02-09 13:04:34 51°15.733 2°40.044 6.7996 3.339635 31.747026 -2.871232
2007-02-09 13:05:34 51°15.735 2°40.017 6.801 3.340774 31.75903 -2.871232
2007-02-09 13:06:34 51°15.726 2°39.998 6.7839 3.340049 31.746894 -2.871232
2007-02-09 13:07:34 51°15.706 2°39.99 6.7817 3.340049 31.774799 -2.871232
2007-02-09 13:08:34 51°15.689 2°39.981 6.7698 3.34212 31.797543 -2.871232
2007-02-09 13:09:34 51°15.673 2°39.971 6.7625 3.341395 31.793504 -2.871232
2007-02-09 13:10:34 51°15.658 2°39.96 6.7591 3.343984 31.831645 -2.871232
2007-02-09 13:11:34 51°15.643 2°39.95 6.7552 3.345536 31.849844 -2.871232
2007-02-09 13:12:34 51°15.633 2°39.928 6.7681 3.343466 31.825278 -2.871232
2007-02-09 13:13:34 51°15.661 2°39.887 6.7786 3.342844 31.797975 -2.871232
2007-02-09 13:14:34 51°15.696 2°39.938 6.7844 3.34243 31.79541 -2.871232
2007-02-09 13:15:34 51°15.723 2°40.017 6.7824 3.336219 31.7281 -2.871232
2007-02-09 13:16:34 51°15.716 2°40.015 6.7654 3.333113 31.703443 -2.871232
2007-02-09 13:17:34 51°15.705 2°40.007 6.7854 3.349263 31.859364 -2.871232
2007-02-09 13:18:34 51°15.695 2°39.997 6.7807 3.347814 31.841368 -2.871232
2007-02-09 13:19:34 51°15.683 2°39.986 6.778 3.34419 31.817583 -2.871232
2007-02-09 13:20:34 51°15.67 2°39.972 6.8051 3.345329 31.818771 -2.871232
2007-02-09 13:21:34 51°15.657 2°39.96 6.8086 3.349677 31.854704 -2.871232
2007-02-09 13:22:34 51°15.644 2°39.948 6.8374 3.357442 31.920322 -2.871232
2007-02-09 13:23:34 51°15.644 2°39.993 6.8025 3.350091 31.841928 -2.871232
2007-02-09 13:24:34 51°15.691 2°39.993 6.7922 3.338393 31.739328 -2.871232
2007-02-09 13:25:34 51°15.71 2°39.967 6.782 3.334459 31.703252 -2.871232
2007-02-09 13:26:34 51°15.703 2°39.952 6.7489 3.333631 31.716996 -2.871232
2007-02-09 13:27:34 51°15.695 2°39.936 6.7462 3.334459 31.741037 -2.871232
2007-02-09 13:28:34 51°15.685 2°39.919 6.7436 3.333631 31.732297 -2.871232
2007-02-09 13:29:34 51°15.678 2°39.896 6.7663 3.336633 31.766688 -2.871232
2007-02-09 13:30:34 51°15.714 2°39.867 6.777 3.338911 31.767291 -2.871232
2007-02-09 13:31:34 51°15.854 2°39.989 6.7831 3.329697 31.664725 -2.871232
2007-02-09 13:32:34 51°16.038 2°40.154 6.7992 3.326177 31.616861 -2.871232
2007-02-09 13:33:34 51°16.226 2°40.311 6.7963 3.321415 31.554165 -2.871232
2007-02-09 13:34:34 51°16.415 2°40.466 6.81 3.314893 31.4846 -2.871232
2007-02-09 13:35:34 51°16.605 2°40.623 6.8157 3.308681 31.409431 -2.871232
2007-02-09 13:36:34 51°16.795 2°40.779 6.8367 3.305783 31.368277 -2.871232
2007-02-09 13:37:34 51°16.985 2°40.936 6.8539 3.302366 31.314625 -2.871232
2007-02-09 13:38:34 51°17.177 2°41.093 6.8788 3.305265 31.325589 -2.871232
2007-02-09 13:39:34 51°17.367 2°41.247 6.8889 3.304126 31.295047 -2.871232
2007-02-09 13:40:34 51°17.555 2°41.401 6.9096 3.30454 31.289668 -2.871232
2007-02-09 13:41:34 51°17.747 2°41.558 6.921 3.30692 31.296089 -2.871232
2007-02-09 13:42:34 51°17.938 2°41.716 6.9445 3.308163 31.2941 -2.871232
2007-02-09 13:43:34 51°18.13 2°41.874 6.9649 3.31075 31.306217 -2.871232
2007-02-09 13:44:34 51°18.32 2°42.036 6.9964 3.313235 31.305769 -2.871232
2007-02-09 13:45:34 51°18.511 2°42.198 7.0182 3.31841 31.334375 -2.871232
2007-02-09 13:46:34 51°18.702 2°42.356 7.0339 3.322447 31.358977 -2.871232
2007-02-09 13:47:34 51°18.893 2°42.517 7.0568 3.325449 31.374496 -2.871232
2007-02-09 13:48:34 51°19.083 2°42.677 7.0783 3.332592 31.424467 -2.871232
2007-02-09 13:49:34 51°19.27 2°42.836 7.0835 3.339011 31.476534 -2.871232
2007-02-09 13:50:34 51°19.458 2°42.996 7.0848 3.339528 31.479292 -2.871232
2007-02-09 13:51:34 51°19.646 2°43.157 7.0926 3.340667 31.486771 -2.871232
2007-02-09 13:52:34 51°19.835 2°43.319 7.0982 3.340563 31.479501 -2.871232
2007-02-09 13:53:34 51°20.023 2°43.481 7.0879 3.343151 31.504774 -2.871232
2007-02-09 13:54:34 51°20.211 2°43.641 7.0734 3.340253 31.476256 -2.871232
2007-02-09 13:55:34 51°20.404 2°43.802 7.0714 3.328865 31.380221 -2.871232
2007-02-09 13:56:34 51°20.595 2°43.965 7.0502 3.326898 31.360548 -2.871232
2007-02-09 13:57:34 51°20.787 2°44.131 7.0643 3.323689 31.34375 -2.871232
2007-02-09 13:58:34 51°20.981 2°44.298 7.0872 3.326381 31.346332 -2.871232
2007-02-09 13:59:33 51°21.173 2°44.462 7.1092 3.32814 31.355029 -2.871232
2007-02-09 14:00:34 51°21.371 2°44.633 7.1044 3.329072 31.341877 -2.871232
2007-02-09 14:01:34 51°21.566 2°44.805 7.0897 3.33166 31.392672 -2.871232
2007-02-09 14:02:34 51°21.759 2°44.97 7.2574 3.370483 31.715722 -2.871232
2007-02-09 14:03:34 51°21.954 2°45.115 7.2297 3.399679 31.955293 -2.871232
2007-02-09 14:04:34 51°22.147 2°45.267 7.2274 3.392846 31.899198 -2.871232
2007-02-09 14:05:34 51°22.344 2°45.416 7.2335 3.393778 31.908917 -2.871232
2007-02-09 14:06:33 51°22.541 2°45.549 7.2373 3.397712 31.941028 -2.871232
2007-02-09 14:07:34 51°22.746 2°45.686 7.2364 3.396884 31.931496 -2.871232
2007-02-09 14:08:34 51°22.947 2°45.817 7.2335 3.395538 31.916567 -2.871232
2007-02-09 14:09:34 51°23.15 2°45.95 7.2241 3.386944 31.834978 -2.871232
2007-02-09 14:10:34 51°23.352 2°46.087 7.2322 3.383942 31.806342 -2.871232
2007-02-09 14:11:33 51°23.484 2°46.34 7.2442 3.385287 31.807033 -2.871232
2007-02-09 14:12:34 51°23.571 2°46.661 7.2453 3.387669 31.831853 -2.871232
2007-02-09 14:13:34 51°23.673 2°46.962 7.2562 3.391085 31.860345 -2.871232
2007-02-09 14:14:34 51°23.781 2°47.261 7.2104 3.395434 31.89676 -2.871232
2007-02-09 14:15:34 51°23.889 2°47.561 7.0967 3.352365 31.5435 -2.871232
2007-02-09 14:16:34 51°23.995 2°47.861 7.0514 3.331764 31.400808 -2.871232
2007-02-09 14:17:34 51°24.099 2°48.167 7.0324 3.32576 31.364513 -2.871232
2007-02-09 14:18:34 51°24.206 2°48.469 7.0246 3.318099 31.29764 -2.871232
2007-02-09 14:19:34 51°24.308 2°48.773 7.006 3.317685 31.309161 -2.871232
2007-02-09 14:20:34 51°24.397 2°49.038 7.0063 3.311267 31.24907 -2.871232
2007-02-09 14:21:34 51°24.433 2°49.143 6.9959 3.304124 31.178762 -2.871232
2007-02-09 14:22:37 51°24.44 2°49.129 7.0724 3.306298 31.205009 -2.871232
2007-02-09 14:23:37 51°24.448 2°49.097 7.051 3.323379 31.347554 -2.871232
2007-02-09 14:24:35 51°24.44 2°49.117 7.0594 3.323482 31.348637 -2.871232
2007-02-09 14:25:34 51°24.432 2°49.131 7.1169 3.343048 31.503692 -2.871232
2007-02-09 14:26:34 51°24.426 2°49.134 7.1201 3.34077 31.482548 -2.871232
2007-02-09 14:27:34 51°24.41 2°49.136 7.0732 3.348845 31.548331 -2.871232
2007-02-09 14:28:37 51°24.4 2°49.128 7.0508 3.31696 31.272543 -2.871232
2007-02-09 14:29:35 51°24.39 2°49.079 7.0253 3.329797 31.385548 -2.871232
2007-02-09 14:30:34 51°24.402 2°49.022 7.0411 3.298741 31.114596 -2.871232
2007-02-09 14:31:37 51°24.394 2°49.046 7.1682 3.349984 31.550488 -2.871232
2007-02-09 14:32:36 51°24.411 2°49.023 7.096 3.357127 31.603821 -2.871232
2007-02-09 14:33:35 51°24.431 2°49.012 7.1393 3.354539 31.583001 -2.871232
2007-02-09 14:34:34 51°24.442 2°49.003 7.0683 3.344497 31.506452 -2.871232
2007-02-09 14:35:34 51°24.449 2°48.995 7.0655 3.329072 31.383266 -2.871232
2007-02-09 14:36:34 51°24.464 2°48.992 7.0494 3.330832 31.398129 -2.871232
2007-02-09 14:37:34 51°24.488 2°49.027 7.1224 3.335802 31.462438 -2.871232
2007-02-09 14:38:34 51°24.481 2°49.083 7.1013 3.356403 31.610435 -2.871232
2007-02-09 14:39:33 51°24.454 2°49.104 7.1033 3.346775 31.536438 -2.871232
2007-02-09 14:40:34 51°24.426 2°49.091 7.0775 3.342737 31.488071 -2.871232
2007-02-09 14:41:34 51°24.408 2°49.068 7.0953 3.338803 31.460231 -2.871232
2007-02-09 14:42:33 51°24.402 2°49.052 7.0852 3.343773 31.505072 -2.871232
2007-02-09 14:43:34 51°24.395 2°49.032 7.0901 3.337975 31.443634 -2.871232
2007-02-09 14:44:34 51°24.386 2°49.012 7.0661 3.334869 31.416492 -2.871232
2007-02-09 14:45:34 51°24.378 2°48.993 7.0295 3.311163 31.219871 -2.871232
2007-02-09 14:46:34 51°24.371 2°48.978 7.0265 3.305884 31.183999 -2.871232
2007-02-09 14:47:34 51°24.363 2°48.966 7.0712 3.329797 31.397897 -2.871232
2007-02-09 14:48:34 51°24.326 2°48.933 7.0146 3.321412 31.326109 -2.871232
2007-02-09 14:49:33 51°24.265 2°48.834 7.0101 3.306091 31.198452 -2.871232
2007-02-09 14:50:34 51°24.211 2°48.748 7.0062 3.302261 31.161909 -2.871232
2007-02-09 14:51:34 51°24.173 2°48.69 7.0171 3.311681 31.247245 -2.871232
2007-02-09 14:52:34 51°24.142 2°48.631 7.0574 3.323482 31.349518 -2.871232
2007-02-09 14:53:34 51°24.114 2°48.567 7.0823 3.323896 31.35473 -2.871232
2007-02-09 14:54:33 51°24.092 2°48.488 7.0541 3.328762 31.391487 -2.871232
2007-02-09 14:55:34 51°24.071 2°48.402 7.0664 3.329797 31.403192 -2.871232
2007-02-09 14:56:35 51°24.042 2°48.322 7.0849 3.33663 31.457835 -2.871232
2007-02-09 14:57:34 51°24.014 2°48.243 7.0847 3.339632 31.474185 -2.871232
2007-02-09 14:58:34 51°23.981 2°48.169 7.0839 3.337458 31.453237 -2.871232
2007-02-09 14:59:34 51°23.953 2°48.093 7.1165 3.332488 31.409262 -2.871232
2007-02-09 15:00:34 51°23.933 2°48.012 7.1135 3.28694 30.902596 -2.871232
2007-02-09 15:01:33 51°23.905 2°47.937 7.1687 3.345222 31.514906 -2.871232
2007-02-09 15:02:34 51°23.873 2°47.86 7.1278 3.363857 31.663431 -2.871232
2007-02-09 15:03:34 51°23.845 2°47.781 7.2051 3.366238 31.686513 -2.871232
2007-02-09 15:04:34 51°23.829 2°47.693 7.1611 3.376384 31.761306 -2.871232
2007-02-09 15:05:34 51°23.803 2°47.615 7.1912 3.368723 31.701794 -2.871232
2007-02-09 15:06:33 51°23.776 2°47.537 7.2009 3.375659 31.752855 -2.871232
2007-02-09 15:07:34 51°23.751 2°47.453 7.2126 3.377108 31.761754 -2.871232
2007-02-09 15:08:33 51°23.727 2°47.373 7.2223 3.372553 31.724004 -2.871232
2007-02-09 15:09:34 51°23.695 2°47.299 7.2487 3.389843 31.864317 -2.871232
2007-02-09 15:10:34 51°23.672 2°47.219 7.2516 3.397608 31.924774 -2.871232
2007-02-09 15:11:34 51°23.649 2°47.143 7.2514 3.393467 31.888732 -2.871232
2007-02-09 15:12:33 51°23.619 2°47.073 7.2488 3.396262 31.912526 -2.871232
2007-02-09 15:13:34 51°23.583 2°47.007 7.2455 3.39502 31.904924 -2.871232
2007-02-09 15:14:34 51°23.555 2°46.932 7.243 3.393156 31.887277 -2.871232
2007-02-09 15:15:34 51°23.534 2°46.853 7.2455 3.39005 31.858458 -2.871232
2007-02-09 15:16:34 51°23.53 2°46.766 7.2341 3.389739 31.853439 -2.871232
2007-02-09 15:17:33 51°23.555 2°46.687 7.2346 3.389636 31.857703 -2.871232
2007-02-09 15:18:34 51°23.597 2°46.627 7.2303 3.386944 31.833198 -2.871232
2007-02-09 15:19:34 51°23.646 2°46.587 7.2275 3.385598 31.823614 -2.871232
2007-02-09 15:20:33 51°23.702 2°46.569 7.2338 3.386323 31.829391 -2.871232
2007-02-09 15:21:34 51°23.765 2°46.583 7.2406 3.387876 31.840242 -2.871232
2007-02-09 15:22:34 51°23.816 2°46.622 7.2413 3.389636 31.85325 -2.871232
2007-02-09 15:23:34 51°23.868 2°46.673 7.2436 3.389636 31.85325 -2.871232
2007-02-09 15:24:34 51°23.967 2°46.752 7.2487 3.392224 31.87578 -2.871232
2007-02-09 15:25:34 51°24.162 2°46.914 7.2712 3.394606 31.889018 -2.871232
2007-02-09 15:26:34 51°24.371 2°47.095 7.2819 3.399472 31.92101 -2.871232
2007-02-09 15:27:33 51°24.578 2°47.268 7.2516 3.400404 31.928935 -2.871232
2007-02-09 15:28:35 51°24.797 2°47.45 7.2267 3.384873 31.800938 -2.871232
2007-02-09 15:29:34 51°25.002 2°47.63 7.215 3.38301 31.793959 -2.871232
2007-02-09 15:30:34 51°25.213 2°47.814 7.231 3.375969 31.736549 -2.871232
2007-02-09 15:31:34 51°25.424 2°47.993 7.2002 3.378454 31.755352 -2.871232
2007-02-09 15:32:34 51°25.632 2°48.183 7.1957 3.369654 31.680457 -2.871232
2007-02-09 15:33:33 51°25.795 2°48.326 7.1786 3.369965 31.691678 -2.871232
2007-02-09 15:34:34 51°25.92 2°48.429 7.1696 3.367584 31.679258 -2.871232
2007-02-09 15:35:34 51°26.02 2°48.519 7.1613 3.365099 31.66309 -2.871232
2007-02-09 15:36:36 51°26.038 2°48.533 7.3369 3.376384 31.747974 -2.871232
2007-02-09 15:37:34 51°26.048 2°48.536 7.2605 3.399679 31.902677 -2.871232
2007-02-09 15:38:33 51°26.055 2°48.536 7.2212 3.39005 31.836208 -2.871232
2007-02-09 15:39:34 51°26.062 2°48.539 7.2113 3.376694 31.735228 -2.871232
2007-02-09 15:40:34 51°26.07 2°48.548 7.2242 3.375452 31.733815 -2.871232
2007-02-09 15:41:33 51°26.079 2°48.557 7.2106 3.3798 31.764943 -2.871232
2007-02-09 15:42:34 51°26.1 2°48.531 7.1942 3.376901 31.744489 -2.871232
2007-02-09 15:43:33 51°26.078 2°48.479 7.1896 3.370793 31.702092 -2.871232
2007-02-09 15:44:34 51°26.021 2°48.488 7.1909 3.370275 31.702017 -2.871232
2007-02-09 15:45:34 51°25.98 2°48.504 7.1923 3.370172 31.702712 -2.871232
2007-02-09 15:46:35 51°25.975 2°48.519 7.2263 3.375555 31.739335 -2.871232
2007-02-09 15:47:34 51°25.976 2°48.534 7.2132 3.384149 31.807611 -2.871232
2007-02-09 15:48:35 51°26.004 2°48.536 7.2227 3.381974 31.789388 -2.871232
2007-02-09 15:49:33 51°26.011 2°48.544 7.2193 3.380007 31.775988 -2.871232
2007-02-09 15:50:34 51°26.018 2°48.554 7.2162 3.379075 31.763606 -2.871232
2007-02-09 15:51:33 51°26.023 2°48.568 7.2132 3.378661 31.764619 -2.871232
2007-02-09 15:52:34 51°26.031 2°48.582 7.2359 3.378765 31.765699 -2.871232
2007-02-09 15:53:34 51°26.041 2°48.593 7.2275 3.380525 31.768944 -2.871232
2007-02-09 15:54:33 51°26.051 2°48.603 7.2244 3.380939 31.777705 -2.871232
2007-02-09 15:55:34 51°26.062 2°48.614 7.2135 3.380214 31.771926 -2.871232
2007-02-09 15:56:34 51°26.073 2°48.622 7.2105 3.378765 31.769254 -2.871232
2007-02-09 15:57:34 51°26.083 2°48.631 7.2127 3.379904 31.779354 -2.871232
2007-02-09 15:58:34 51°26.093 2°48.64 7.2244 3.378661 31.765508 -2.871232
2007-02-09 15:59:34 51°26.102 2°48.65 7.2256 3.380421 31.774085 -2.871232
2007-02-09 16:00:34 51°26.112 2°48.662 7.2239 3.380939 31.780371 -2.871232
2007-02-09 16:01:34 51°26.094 2°48.678 7.2353 3.38301 31.798405 -2.871232
2007-02-09 16:02:34 51°26.068 2°48.629 7.1992 3.37276 31.713733 -2.871232
2007-02-09 16:03:34 51°26.031 2°48.566 7.242 3.380525 31.780498 -2.871232
2007-02-09 16:04:34 51°25.997 2°48.497 7.2205 3.38477 31.812309 -2.871232
2007-02-09 16:05:34 51°25.979 2°48.477 7.2328 3.381767 31.789007 -2.871232
2007-02-09 16:06:34 51°25.971 2°48.483 7.2355 3.383734 31.805072 -2.871232
2007-02-09 16:07:34 51°25.967 2°48.496 7.2361 3.386219 31.830982 -2.871232
2007-02-09 16:08:34 51°25.967 2°48.513 7.2462 3.388394 31.84564 -2.871232
2007-02-09 16:09:34 51°25.971 2°48.529 7.2527 3.389843 31.853628 -2.871232
2007-02-09 16:10:34 51°25.989 2°48.536 7.2613 3.393053 31.875505 -2.871232
2007-02-09 16:11:34 51°26.003 2°48.544 7.2797 3.395123 31.893523 -2.871232
2007-02-09 16:12:34 51°26.014 2°48.554 7.2604 3.396159 31.890948 -2.871232
2007-02-09 16:13:34 51°26.024 2°48.566 7.2594 3.393467 31.876258 -2.871232
2007-02-09 16:14:34 51°26.034 2°48.58 7.237 3.391396 31.864473 -2.871232
2007-02-09 16:15:34 51°26.038 2°48.598 7.2476 3.386737 31.831039 -2.871232
2007-02-09 16:16:35 51°26.013 2°48.586 7.2589 3.388808 31.840165 -2.871232
2007-02-09 16:17:34 51°26.003 2°48.519 7.2588 3.394606 31.88991 -2.871232
2007-02-09 16:18:35 51°25.995 2°48.473 7.2688 3.394709 31.890989 -2.871232
2007-02-09 16:19:34 51°25.994 2°48.468 7.2752 3.397608 31.91318 -2.871232
2007-02-09 16:20:34 51°25.995 2°48.472 7.2759 3.397608 31.906049 -2.871232
2007-02-09 16:21:34 51°25.999 2°48.482 7.2668 3.397298 31.909943 -2.871232
2007-02-09 16:22:34 51°26.004 2°48.496 7.2707 3.397919 31.9182 -2.871232
2007-02-09 16:23:34 51°26.01 2°48.514 7.2802 3.398436 31.914679 -2.871232
2007-02-09 16:24:34 51°26.014 2°48.533 7.2829 3.401543 31.942584 -2.871232
2007-02-09 16:25:35 51°26.021 2°48.554 7.278 3.402889 31.954824 -2.871232
2007-02-09 16:26:34 51°26.02 2°48.574 7.2667 3.400714 31.94109 -2.871232
2007-02-09 16:27:35 51°26.002 2°48.568 7.2696 3.397505 31.913884 -2.871232
2007-02-09 16:28:34 51°26.006 2°48.527 7.2741 3.399575 31.926546 -2.871232
2007-02-09 16:29:34 51°26.022 2°48.501 7.278 3.398333 31.915383 -2.871232
2007-02-09 16:30:34 51°26.039 2°48.486 7.2759 3.399679 31.921384 -2.871232
2007-02-09 16:31:34 51°26.057 2°48.471 7.2769 3.401128 31.938269 -2.871232
2007-02-09 16:32:35 51°26.076 2°48.458 7.2769 3.402371 31.94943 -2.871232
2007-02-09 16:33:34 51°26.097 2°48.447 7.2769 3.400507 31.931797 -2.871232
2007-02-09 16:34:35 51°26.121 2°48.437 7.2766 3.400611 31.932875 -2.871232
2007-02-09 16:35:34 51°26.127 2°48.398 7.2782 3.401543 31.94526 -2.871232
2007-02-09 16:36:35 51°26.083 2°48.431 7.2926 3.398022 31.9068 -2.871232
2007-02-09 16:37:34 51°26.049 2°48.485 7.2881 3.404338 31.961895 -2.871232
2007-02-09 16:38:34 51°26.014 2°48.493 7.2969 3.404234 31.959032 -2.871232
2007-02-09 16:39:34 51°26 2°48.507 7.292 3.406409 31.974542 -2.871232
2007-02-09 16:40:34 51°25.996 2°48.526 7.2917 3.405684 31.975917 -2.871232
2007-02-09 16:41:35 51°25.999 2°48.548 7.2932 3.405373 31.972681 -2.871232
2007-02-09 16:42:34 51°25.951 2°48.601 7.2931 3.407134 31.986554 -2.871232
2007-02-09 16:43:35 51°25.788 2°48.699 7.2921 3.405477 31.963944 -2.871232
2007-02-09 16:44:34 51°25.607 2°48.8 7.3047 3.407237 31.98674 -2.871232
2007-02-09 16:45:34 51°25.427 2°48.987 7.2881 3.410136 32.01426 -2.871232
2007-02-09 16:46:34 51°25.245 2°49.184 7.2692 3.405581 31.988234 -2.871232
2007-02-09 16:47:34 51°25.052 2°49.349 7.2637 3.403924 31.97722 -2.871232
2007-02-09 16:48:35 51°24.842 2°49.464 7.2573 3.405684 32.001826 -2.871232
2007-02-09 16:49:34 51°24.634 2°49.569 7.2383 3.402992 31.980014 -2.871232
2007-02-09 16:50:35 51°24.422 2°49.672 7.2328 3.397505 31.944227 -2.871232
2007-02-09 16:51:34 51°24.216 2°49.776 7.2238 3.39647 31.940572 -2.871232
2007-02-09 16:52:35 51°24.005 2°49.885 7.2249 3.39647 31.942359 -2.871232
2007-02-09 16:53:34 51°23.804 2°49.994 7.0623 3.354022 31.589998 -2.871232
2007-02-09 16:54:35 51°23.595 2°50.101 7.0685 3.329486 31.389357 -2.871232
2007-02-09 16:55:35 51°23.385 2°50.206 7.0782 3.334766 31.438359 -2.871232
2007-02-09 16:56:34 51°23.18 2°50.295 7.0596 3.337665 31.466004 -2.871232
2007-02-09 16:57:35 51°22.967 2°50.393 7.0651 3.333421 31.45257 -2.871232
2007-02-09 16:58:34 51°22.76 2°50.481 7.021 3.334663 31.46645 -2.871232
2007-02-09 16:59:35 51°22.547 2°50.571 6.932 3.306506 31.242356 -2.871232
2007-02-09 17:00:34 51°22.342 2°50.663 6.9083 3.290565 31.114067 -2.871232
2007-02-09 17:01:35 51°22.129 2°50.759 6.8986 3.278661 31.035798 -2.871232
2007-02-09 17:02:34 51°21.922 2°50.848 6.9067 3.283733 31.083726 -2.871232
2007-02-09 17:03:35 51°21.711 2°50.935 6.92 3.290462 31.145502 -2.871232
2007-02-09 17:04:35 51°21.504 2°51.01 6.9247 3.295741 31.191186 -2.871232
2007-02-09 17:05:34 51°21.299 2°51.086 6.9221 3.29926 31.221928 -2.871232
2007-02-09 17:06:35 51°21.083 2°51.175 6.9379 3.298639 31.221585 -2.871232
2007-02-09 17:07:34 51°20.873 2°51.254 6.9438 3.304954 31.264869 -2.871232
2007-02-09 17:08:35 51°20.655 2°51.332 6.9354 3.306506 31.285564 -2.871232
2007-02-09 17:09:34 51°20.444 2°51.414 6.9267 3.304022 31.26569 -2.871232
2007-02-09 17:10:35 51°20.225 2°51.491 6.9198 3.302883 31.259926 -2.871232
2007-02-09 17:11:34 51°20.012 2°51.563 6.917 3.301952 31.256332 -2.871232
2007-02-09 17:12:35 51°19.79 2°51.633 6.8998 3.301641 31.253957 -2.871232
2007-02-09 17:13:34 51°19.575 2°51.696 6.8581 3.294395 31.20351 -2.871232
2007-02-09 17:14:34 51°19.358 2°51.765 6.8503 3.287046 31.152801 -2.871232
2007-02-09 17:15:34 51°19.143 2°51.838 6.8094 3.280939 31.118607 -2.871232
2007-02-09 17:16:34 51°18.933 2°51.916 6.6765 3.270382 31.085146 -2.871232
2007-02-09 17:17:34 51°18.722 2°52.006 6.6508 3.25289 30.968718 -2.871232
2007-02-09 17:18:34 51°18.516 2°52.13 6.6368 3.247818 30.93813 -2.871232
2007-02-09 17:19:34 51°18.311 2°52.264 6.6066 3.24668 30.941977 -2.871232
2007-02-09 17:20:34 51°18.105 2°52.385 6.6137 3.24047 30.901966 -2.871232
2007-02-09 17:21:34 51°17.901 2°52.519 6.6832 3.264483 31.115783 -2.871232
2007-02-09 17:22:34 51°17.7 2°52.663 6.7051 3.286944 31.310278 -2.871232
2007-02-09 17:23:34 51°17.504 2°52.827 6.6804 3.290361 31.349012 -2.871232
2007-02-09 17:24:34 51°17.325 2°53.04 6.6239 3.284771 31.30425 -2.871232
2007-02-09 17:25:34 51°17.144 2°53.248 6.5988 3.268727 31.184575 -2.871232
2007-02-09 17:26:34 51°16.959 2°53.449 6.5617 3.256824 31.091585 -2.871232
2007-02-09 17:27:35 51°16.77 2°53.664 6.5082 3.245232 31.00264 -2.871232
2007-02-09 17:28:34 51°16.592 2°53.879 6.45 3.2295 30.894478 -2.871232
2007-02-09 17:29:34 51°16.412 2°54.098 6.433 3.219978 30.834219 -2.871232
2007-02-09 17:30:34 51°16.301 2°54.234 6.3932 3.21677 30.817864 -2.871232
2007-02-09 17:31:34 51°16.255 2°54.327 6.3656 3.209836 30.777853 -2.871232
2007-02-09 17:32:36 51°16.264 2°54.347 6.3658 3.206214 30.753526 -2.871232
2007-02-09 17:33:36 51°16.277 2°54.357 6.3758 3.206939 30.759452 -2.871232
2007-02-09 17:34:34 51°16.29 2°54.368 6.3615 3.206421 30.753958 -2.871232
2007-02-09 17:35:34 51°16.208 2°54.368 6.3594 3.205593 30.751347 -2.871232
2007-02-09 17:36:39 51°15.99 2°54.424 6.3438 3.205179 30.746068 -2.871232
2007-02-09 17:37:38 51°15.782 2°54.439 6.317 3.199901 30.715604 -2.871232
2007-02-09 17:38:38 51°15.571 2°54.399 6.266 3.190277 30.660062 -2.871232
2007-02-09 17:39:39 51°15.355 2°54.39 6.2554 3.183964 30.633483 -2.871232
2007-02-09 17:40:38 51°15.146 2°54.427 6.254 3.178893 30.568919 -2.871232
2007-02-09 17:41:39 51°14.93 2°54.496 6.2964 3.177962 30.552845 -2.871232
2007-02-09 17:42:39 51°14.724 2°54.606 6.3262 3.209837 30.85046 -2.871232
2007-02-09 17:43:38 51°14.541 2°54.796 6.3096 3.219359 30.941117 -2.871232
2007-02-09 17:44:39 51°14.376 2°55.04 6.2158 3.224638 31.018707 -2.871232
2007-02-09 17:45:38 51°14.249 2°55.276 6.1542 3.050792 29.26706 -2.871232
2007-02-09 17:46:38 51°14.105 2°55.419 6.1104 2.887872 27.59225 -2.871232
2007-02-09 17:47:39 51°13.96 2°55.521 6.1132 2.772363 26.387908 -2.871232
2007-02-09 17:48:38 51°13.838 2°55.611 6.0772 2.597759 24.600012 -2.871232
2007-02-09 17:49:38 51°13.741 2°55.731 6.0523 2.541845 24.022551 -2.871232
2007-02-09 17:50:39 51°13.677 2°55.854 6.0492 2.55156 24.133158 -2.871232
2007-02-09 17:51:38 51°13.633 2°55.962 6.0489 2.481496 23.424373 -2.871232
2007-02-09 17:52:39 51°13.608 2°56.054 6.0634 2.493276 23.532784 -2.871232
2007-02-09 17:53:39 51°13.599 2°56.088 6.0602 2.531098 23.922819 -2.871232